Time;durP1;ratioP1;P1;durP2;ratioP2;P2;SDS_P1;SDS_P2;PMS_P1;PMS_P2;Temp;Humidity;BMP_temperature;BMP_pressure;BME280_temperature;BME280_humidity;BME280_pressure;Samples;Min_cycle;Max_cycle;Signal;HPM_P1;HPM_P2
2024/04/21 00:00:36;;;;;;;22.25;4.32;;;;;;;;;;5416524;26;20131;-54
2024/04/21 00:03:01;;;;;;;22.77;4.05;;;;;;;;;;5413969;26;20023;-50
2024/04/21 00:05:26;;;;;;;15.43;3.83;;;;;;;;;;5416978;26;19999;-52
2024/04/21 00:07:52;;;;;;;20.10;3.85;;;;;;;;;;5415194;26;20019;-52
2024/04/21 00:10:17;;;;;;;20.58;3.47;;;;;;;;;;5417691;26;20399;-55
2024/04/21 00:12:42;;;;;;;22.80;3.90;;;;;;;;;;5412957;26;20069;-53
2024/04/21 00:15:07;;;;;;;17.00;4.00;;;;;;;;;;5416042;26;20016;-51
2024/04/21 00:17:34;;;;;;;18.70;3.75;;;;;;;;;;5383628;26;20004;-52
2024/04/21 00:19:59;;;;;;;18.55;3.30;;;;;;;;;;5378608;26;19999;-51
2024/04/21 00:22:24;;;;;;;20.27;3.83;;;;;;;;;;5417284;26;20007;-55
2024/04/21 00:24:49;;;;;;;19.30;3.65;;;;;;;;;;5416364;26;20011;-53
2024/04/21 00:27:15;;;;;;;18.48;3.65;;;;;;;;;;5384823;26;20008;-52
2024/04/21 00:29:40;;;;;;;12.02;3.05;;;;;;;;;;5385456;26;20069;-51
2024/04/21 00:32:05;;;;;;;19.73;3.90;;;;;;;;;;5418272;26;20010;-52
2024/04/21 00:34:30;;;;;;;15.88;3.33;;;;;;;;;;5417409;26;20010;-50
2024/04/21 00:36:56;;;;;;;14.95;4.05;;;;;;;;;;5416445;26;20000;-51
2024/04/21 00:39:21;;;;;;;18.73;4.97;;;;;;;;;;5415432;26;20007;-51
2024/04/21 00:41:46;;;;;;;30.10;6.78;;;;;;;;;;5414123;26;19999;-51
2024/04/21 00:44:11;;;;;;;19.27;6.30;;;;;;;;;;5415632;26;20014;-51
2024/04/21 00:46:37;;;;;;;29.42;7.90;;;;;;;;;;5385360;26;20300;-51
2024/04/21 00:49:03;;;;;;;20.70;6.15;;;;;;;;;;5417147;26;20007;-51
2024/04/21 00:51:29;;;;;;;20.95;5.30;;;;;;;;;;5415602;26;20018;-50
2024/04/21 00:53:54;;;;;;;18.65;4.03;;;;;;;;;;5415914;26;20022;-50
2024/04/21 00:56:22;;;;;;;21.08;4.00;;;;;;;;;;5416130;26;19996;-52
2024/04/21 00:58:47;;;;;;;16.40;3.17;;;;;;;;;;5413237;26;20385;-50
2024/04/21 01:01:12;;;;;;;12.50;3.15;;;;;;;;;;5412844;26;20011;-51
2024/04/21 01:03:37;;;;;;;15.98;3.38;;;;;;;;;;5414223;26;19991;-51
2024/04/21 01:06:03;;;;;;;16.58;3.17;;;;;;;;;;5420345;26;20000;-51
2024/04/21 01:08:28;;;;;;;15.95;2.92;;;;;;;;;;5411539;26;20081;-52
2024/04/21 01:10:53;;;;;;;15.30;2.92;;;;;;;;;;5409892;26;20016;-51
2024/04/21 01:13:19;;;;;;;17.58;3.10;;;;;;;;;;5415870;26;20007;-51
2024/04/21 01:15:44;;;;;;;17.40;2.83;;;;;;;;;;5416065;26;20290;-50
2024/04/21 01:18:10;;;;;;;13.70;2.78;;;;;;;;;;5392092;26;19995;-51
2024/04/21 01:20:35;;;;;;;18.15;3.47;;;;;;;;;;5415459;26;20016;-52
2024/04/21 01:23:00;;;;;;;16.65;2.90;;;;;;;;;;5415360;26;20396;-51
2024/04/21 01:25:26;;;;;;;18.88;3.05;;;;;;;;;;5415412;26;20011;-53
2024/04/21 01:27:51;;;;;;;12.85;3.03;;;;;;;;;;5409553;26;19996;-51
2024/04/21 01:30:16;;;;;;;17.02;3.17;;;;;;;;;;5412700;26;20007;-50
2024/04/21 01:32:42;;;;;;;14.38;2.88;;;;;;;;;;5411923;26;19999;-50
2024/04/21 01:35:07;;;;;;;17.52;2.92;;;;;;;;;;5416208;26;20031;-50
2024/04/21 01:37:32;;;;;;;14.02;2.92;;;;;;;;;;5419902;26;20015;-50
2024/04/21 01:39:57;;;;;;;11.98;2.65;;;;;;;;;;5420951;26;20011;-50
2024/04/21 01:42:23;;;;;;;11.05;2.70;;;;;;;;;;5413711;26;20002;-52
2024/04/21 01:44:48;;;;;;;12.70;3.20;;;;;;;;;;5381210;26;20022;-54
2024/04/21 01:47:13;;;;;;;10.55;2.75;;;;;;;;;;5418824;26;20014;-55
2024/04/21 01:49:38;;;;;;;10.85;2.33;;;;;;;;;;5418401;26;20023;-52
2024/04/21 01:52:04;;;;;;;12.93;2.78;;;;;;;;;;5420729;26;20007;-50
2024/04/21 01:54:29;;;;;;;9.13;1.95;;;;;;;;;;5386918;26;19992;-50
2024/04/21 01:56:54;;;;;;;13.52;2.70;;;;;;;;;;5400613;26;20012;-51
2024/04/21 01:59:19;;;;;;;8.77;2.28;;;;;;;;;;5417942;26;20006;-52
2024/04/21 02:01:44;;;;;;;11.32;2.35;;;;;;;;;;5415365;26;20018;-50
2024/04/21 02:04:10;;;;;;;9.02;2.03;;;;;;;;;;5388683;26;20300;-50
2024/04/21 02:06:35;;;;;;;10.38;2.28;;;;;;;;;;5415274;26;20014;-52
2024/04/21 02:09:00;;;;;;;10.20;1.85;;;;;;;;;;5413813;26;20004;-50
2024/04/21 02:11:26;;;;;;;6.65;1.70;;;;;;;;;;5417627;26;20007;-53
2024/04/21 02:13:51;;;;;;;7.97;2.30;;;;;;;;;;5417145;26;19999;-50
2024/04/21 02:16:16;;;;;;;7.57;2.17;;;;;;;;;;5419367;26;20018;-50
2024/04/21 02:18:41;;;;;;;12.40;2.10;;;;;;;;;;5422195;26;20373;-50
2024/04/21 02:21:07;;;;;;;8.57;1.90;;;;;;;;;;5409573;26;20443;-50
2024/04/21 02:23:32;;;;;;;9.57;1.95;;;;;;;;;;5400119;26;20005;-50
2024/04/21 02:25:58;;;;;;;7.43;1.83;;;;;;;;;;5421595;26;20006;-50
2024/04/21 02:28:23;;;;;;;9.30;2.22;;;;;;;;;;5420024;26;20392;-50
2024/04/21 02:30:48;;;;;;;9.13;2.28;;;;;;;;;;5414465;26;20282;-51
2024/04/21 02:33:13;;;;;;;10.23;2.50;;;;;;;;;;5389159;26;20314;-50
2024/04/21 02:35:38;;;;;;;11.63;2.35;;;;;;;;;;5386702;26;19988;-51
2024/04/21 02:38:04;;;;;;;10.80;2.97;;;;;;;;;;5386456;26;20386;-51
2024/04/21 02:40:29;;;;;;;11.23;2.70;;;;;;;;;;5386274;26;20059;-50
2024/04/21 02:42:54;;;;;;;10.23;2.75;;;;;;;;;;5392333;26;20315;-50
2024/04/21 02:45:20;;;;;;;11.20;2.53;;;;;;;;;;5390224;26;19999;-50
2024/04/21 02:47:45;;;;;;;12.63;2.38;;;;;;;;;;5419780;26;20425;-50
2024/04/21 02:50:10;;;;;;;7.80;1.80;;;;;;;;;;5421579;26;20006;-51
2024/04/21 02:52:35;;;;;;;7.93;1.95;;;;;;;;;;5359266;26;20046;-50
2024/04/21 02:55:00;;;;;;;10.20;1.75;;;;;;;;;;5355281;26;20277;-51
2024/04/21 02:57:26;;;;;;;10.75;2.45;;;;;;;;;;5386306;26;20071;-51
2024/04/21 02:59:51;;;;;;;7.22;2.10;;;;;;;;;;5355187;26;20412;-51
2024/04/21 03:02:17;;;;;;;10.32;2.50;;;;;;;;;;5399618;21;20028;-84
2024/04/21 03:04:44;;;;;;;10.18;1.98;;;;;;;;;;5386355;26;20280;-85
2024/04/21 03:07:10;;;;;;;7.80;1.92;;;;;;;;;;5386166;26;20103;-85
2024/04/21 03:09:40;;;;;;;10.27;2.20;;;;;;;;;;5354978;26;20070;-85
2024/04/21 03:12:07;;;;;;;10.02;2.22;;;;;;;;;;5386093;26;20333;-84
2024/04/21 03:14:32;;;;;;;8.77;1.75;;;;;;;;;;5355517;26;19996;-84
2024/04/21 03:16:59;;;;;;;10.23;2.22;;;;;;;;;;5386470;26;20007;-85
2024/04/21 03:19:26;;;;;;;10.38;2.17;;;;;;;;;;5385731;26;20007;-85
2024/04/21 03:21:52;;;;;;;9.60;1.73;;;;;;;;;;5358892;26;20004;-86
2024/04/21 03:24:19;;;;;;;9.65;1.83;;;;;;;;;;5359078;26;20011;-85
2024/04/21 03:26:45;;;;;;;10.43;2.00;;;;;;;;;;5388289;26;19997;-85
2024/04/21 03:29:12;;;;;;;9.63;1.88;;;;;;;;;;5338305;26;20019;-85
2024/04/21 03:31:38;;;;;;;7.45;1.70;;;;;;;;;;5400360;26;20005;-85
2024/04/21 03:34:04;;;;;;;9.60;1.90;;;;;;;;;;5364986;26;20004;-85
2024/04/21 03:36:31;;;;;;;11.13;2.13;;;;;;;;;;5401964;26;20000;-85
2024/04/21 03:38:57;;;;;;;15.47;2.30;;;;;;;;;;5399916;26;20012;-85
2024/04/21 03:41:24;;;;;;;9.70;2.10;;;;;;;;;;5386070;26;20033;-85
2024/04/21 03:43:50;;;;;;;11.60;1.70;;;;;;;;;;5386266;26;19992;-85
2024/04/21 03:46:17;;;;;;;10.32;2.10;;;;;;;;;;5385755;26;19992;-85
2024/04/21 03:48:43;;;;;;;12.40;2.38;;;;;;;;;;5358972;26;20012;-84
2024/04/21 03:51:10;;;;;;;9.93;2.40;;;;;;;;;;5399643;26;20073;-85
2024/04/21 03:53:36;;;;;;;8.63;2.10;;;;;;;;;;5341037;26;20074;-84
2024/04/21 03:56:03;;;;;;;10.05;1.98;;;;;;;;;;5369919;26;20021;-85
2024/04/21 03:58:29;;;;;;;8.45;1.80;;;;;;;;;;5375844;26;20027;-85
2024/04/21 04:03:26;;;;;;;10.65;1.98;;;;;;;;;;5348292;26;20005;-51
2024/04/21 04:05:51;;;;;;;8.85;1.90;;;;;;;;;;5320130;26;19993;-53
2024/04/21 04:08:16;;;;;;;11.45;2.40;;;;;;;;;;5348158;26;20001;-52
2024/04/21 04:10:42;;;;;;;7.75;1.90;;;;;;;;;;5344323;26;19997;-51
2024/04/21 04:13:08;;;;;;;12.90;2.35;;;;;;;;;;5344388;26;20016;-53
2024/04/21 04:15:33;;;;;;;9.85;1.90;;;;;;;;;;5347363;26;20001;-53
2024/04/21 04:17:59;;;;;;;10.02;2.15;;;;;;;;;;5338065;26;20005;-53
2024/04/21 04:20:24;;;;;;;6.45;1.80;;;;;;;;;;5354733;26;20394;-51
2024/04/21 04:22:49;;;;;;;14.20;2.45;;;;;;;;;;5347808;26;19997;-53
2024/04/21 04:25:15;;;;;;;9.55;2.33;;;;;;;;;;5345483;26;20013;-52
2024/04/21 04:27:40;;;;;;;8.63;2.13;;;;;;;;;;5344657;26;20472;-52
2024/04/21 04:30:05;;;;;;;11.10;1.90;;;;;;;;;;5342167;26;20028;-51
2024/04/21 04:32:31;;;;;;;8.45;2.00;;;;;;;;;;5344886;26;20008;-50
2024/04/21 04:34:56;;;;;;;11.15;1.98;;;;;;;;;;5345862;26;19996;-50
2024/04/21 04:37:21;;;;;;;11.07;2.13;;;;;;;;;;5339263;26;20333;-51
2024/04/21 04:39:47;;;;;;;9.38;1.98;;;;;;;;;;5344970;26;20402;-51
2024/04/21 04:42:12;;;;;;;8.73;2.10;;;;;;;;;;5343524;26;20315;-51
2024/04/21 04:44:37;;;;;;;15.15;2.47;;;;;;;;;;5316640;26;20005;-51
2024/04/21 04:47:02;;;;;;;8.07;2.30;;;;;;;;;;5344072;26;20001;-53
2024/04/21 04:49:28;;;;;;;9.32;2.05;;;;;;;;;;5344752;26;20047;-53
2024/04/21 04:51:53;;;;;;;9.75;2.17;;;;;;;;;;5343486;26;20398;-51
2024/04/21 04:54:18;;;;;;;10.77;2.60;;;;;;;;;;5342704;26;20021;-54
2024/04/21 04:56:44;;;;;;;12.27;2.40;;;;;;;;;;5344756;26;20001;-52
2024/04/21 04:59:09;;;;;;;9.68;2.20;;;;;;;;;;5346320;26;20015;-50
2024/04/21 05:01:34;;;;;;;10.77;2.05;;;;;;;;;;5341954;26;20012;-53
2024/04/21 05:03:59;;;;;;;8.15;2.30;;;;;;;;;;5345315;26;20013;-52
2024/04/21 05:06:24;;;;;;;9.77;2.08;;;;;;;;;;5336678;26;20015;-54
2024/04/21 05:08:50;;;;;;;9.18;2.65;;;;;;;;;;5342533;26;20012;-54
2024/04/21 05:11:15;;;;;;;9.77;2.08;;;;;;;;;;5339180;26;19999;-52
2024/04/21 05:13:40;;;;;;;12.77;3.05;;;;;;;;;;5345022;26;20007;-56
2024/04/21 05:16:05;;;;;;;11.95;2.30;;;;;;;;;;5344228;26;20004;-55
2024/04/21 05:18:31;;;;;;;11.13;2.40;;;;;;;;;;5343218;26;20062;-53
2024/04/21 05:20:56;;;;;;;10.82;2.50;;;;;;;;;;5345165;26;20012;-52
2024/04/21 05:23:22;;;;;;;7.97;1.92;;;;;;;;;;5342780;26;22860;-54
2024/04/21 05:25:47;;;;;;;12.52;2.75;;;;;;;;;;5343395;26;20067;-52
2024/04/21 05:28:12;;;;;;;10.55;2.67;;;;;;;;;;5344027;26;20047;-54
2024/04/21 05:30:37;;;;;;;12.57;2.58;;;;;;;;;;5343577;26;20016;-53
2024/04/21 05:33:03;;;;;;;13.45;2.65;;;;;;;;;;5344071;26;20092;-57
2024/04/21 05:35:28;;;;;;;10.30;2.35;;;;;;;;;;5347413;26;20414;-55
2024/04/21 05:37:53;;;;;;;13.30;2.45;;;;;;;;;;5343421;26;20013;-57
2024/04/21 05:40:18;;;;;;;11.93;2.85;;;;;;;;;;5342470;26;19996;-56
2024/04/21 05:42:44;;;;;;;10.82;2.63;;;;;;;;;;5342601;26;20016;-52
2024/04/21 05:45:09;;;;;;;9.73;3.03;;;;;;;;;;5344416;26;19997;-53
2024/04/21 05:47:34;;;;;;;13.82;2.75;;;;;;;;;;5344256;26;19997;-53
2024/04/21 05:49:59;;;;;;;12.38;2.85;;;;;;;;;;5343871;26;20067;-54
2024/04/21 05:52:24;;;;;;;14.57;3.13;;;;;;;;;;5342043;26;20035;-56
2024/04/21 05:54:50;;;;;;;12.50;3.20;;;;;;;;;;5342584;26;20001;-56
2024/04/21 05:57:15;;;;;;;10.77;3.10;;;;;;;;;;5343031;26;20080;-55
2024/04/21 05:59:40;;;;;;;11.15;3.05;;;;;;;;;;5341881;26;20023;-54
2024/04/21 06:02:05;;;;;;;10.82;2.78;;;;;;;;;;5341959;26;20013;-52
2024/04/21 06:04:31;;;;;;;13.50;3.13;;;;;;;;;;5343238;26;20008;-56
2024/04/21 06:06:56;;;;;;;13.02;3.25;;;;;;;;;;5343775;26;20011;-54
2024/04/21 06:09:21;;;;;;;14.38;3.03;;;;;;;;;;5338973;26;19997;-55
2024/04/21 06:11:47;;;;;;;14.05;3.28;;;;;;;;;;5343160;26;20008;-56
2024/04/21 06:14:12;;;;;;;12.80;2.85;;;;;;;;;;5343170;26;20016;-56
2024/04/21 06:16:37;;;;;;;12.23;2.80;;;;;;;;;;5352075;26;20012;-54
2024/04/21 06:19:02;;;;;;;11.02;2.90;;;;;;;;;;5340948;26;19993;-57
2024/04/21 06:21:27;;;;;;;15.48;3.40;;;;;;;;;;5339108;26;20016;-56
2024/04/21 06:23:53;;;;;;;12.82;3.47;;;;;;;;;;5346534;26;20017;-55
2024/04/21 06:26:18;;;;;;;14.27;3.35;;;;;;;;;;5345877;26;20011;-53
2024/04/21 06:28:43;;;;;;;13.80;3.70;;;;;;;;;;5343694;26;20001;-56
2024/04/21 06:31:08;;;;;;;10.63;3.50;;;;;;;;;;5346665;26;20136;-56
2024/04/21 06:33:34;;;;;;;13.50;3.85;;;;;;;;;;5345782;26;20008;-56
2024/04/21 06:35:59;;;;;;;13.90;3.95;;;;;;;;;;5349394;26;20012;-53
2024/04/21 06:38:25;;;;;;;16.80;3.67;;;;;;;;;;5341339;26;20035;-55
2024/04/21 06:40:50;;;;;;;14.55;4.00;;;;;;;;;;5347211;26;20071;-56
2024/04/21 06:43:15;;;;;;;18.63;4.70;;;;;;;;;;5342328;26;20058;-53
2024/04/21 06:45:46;;;;;;;17.23;5.68;;;;;;;;;;5344879;26;20000;-51
2024/04/21 06:48:11;;;;;;;;;;;;;;;;;;5328547;26;20004;-55
2024/04/21 06:50:38;;;;;;;15.73;5.28;;;;;;;;;;5385136;26;19957;-55
2024/04/21 06:53:03;;;;;;;14.75;5.65;;;;;;;;;;5370080;26;20304;-54
2024/04/21 06:55:29;;;;;;;17.35;5.90;;;;;;;;;;5348737;26;20045;-56
2024/04/21 06:57:54;;;;;;;19.15;5.95;;;;;;;;;;5345400;26;20045;-54
2024/04/21 07:00:19;;;;;;;21.13;5.70;;;;;;;;;;5313467;26;20008;-55
2024/04/21 07:02:44;;;;;;;14.73;5.22;;;;;;;;;;5342592;26;20009;-54
2024/04/21 07:05:10;;;;;;;18.95;5.05;;;;;;;;;;5345450;26;20001;-53
2024/04/21 07:07:35;;;;;;;14.00;3.60;;;;;;;;;;5345533;26;20037;-52
2024/04/21 07:10:00;;;;;;;15.77;4.30;;;;;;;;;;5336196;26;19998;-55
2024/04/21 07:12:25;;;;;;;12.82;4.10;;;;;;;;;;5347981;26;20051;-56
2024/04/21 07:14:51;;;;;;;14.13;3.63;;;;;;;;;;5315877;26;20008;-53
2024/04/21 07:17:16;;;;;;;15.20;3.80;;;;;;;;;;5347170;26;20071;-55
2024/04/21 07:19:41;;;;;;;17.45;4.10;;;;;;;;;;5355696;26;20033;-54
2024/04/21 07:22:07;;;;;;;17.38;4.00;;;;;;;;;;5339748;26;20434;-55
2024/04/21 07:24:32;;;;;;;15.05;4.07;;;;;;;;;;5345793;26;19997;-53
2024/04/21 07:26:57;;;;;;;18.35;3.97;;;;;;;;;;5347274;26;20001;-52
2024/04/21 07:29:23;;;;;;;17.40;4.10;;;;;;;;;;5345566;26;20476;-52
2024/04/21 07:31:48;;;;;;;16.10;3.47;;;;;;;;;;5346282;26;20019;-56
2024/04/21 07:34:14;;;;;;;17.88;3.22;;;;;;;;;;5341296;26;19997;-55
2024/04/21 07:36:39;;;;;;;16.13;3.67;;;;;;;;;;5344621;26;20043;-54
2024/04/21 07:39:04;;;;;;;16.17;4.35;;;;;;;;;;5342360;26;20581;-54
2024/04/21 07:41:29;;;;;;;17.50;4.35;;;;;;;;;;5345171;26;20437;-54
2024/04/21 07:43:55;;;;;;;15.88;3.90;;;;;;;;;;5346064;26;20001;-54
2024/04/21 07:46:20;;;;;;;16.48;4.22;;;;;;;;;;5342121;26;20001;-53
2024/04/21 07:48:45;;;;;;;14.45;3.50;;;;;;;;;;5347641;26;20283;-55
2024/04/21 07:51:10;;;;;;;14.85;3.90;;;;;;;;;;5340252;26;20283;-56
2024/04/21 07:53:36;;;;;;;15.30;3.55;;;;;;;;;;5342862;26;19997;-54
2024/04/21 07:56:01;;;;;;;12.40;3.13;;;;;;;;;;5345120;26;20009;-56
2024/04/21 07:58:26;;;;;;;21.65;3.60;;;;;;;;;;5345978;26;20037;-55
2024/04/21 08:00:51;;;;;;;17.13;3.45;;;;;;;;;;5343730;26;20001;-53
2024/04/21 08:03:16;;;;;;;16.27;2.85;;;;;;;;;;5342976;26;20019;-54
2024/04/21 08:05:42;;;;;;;13.00;2.55;;;;;;;;;;5313777;26;20015;-53
2024/04/21 08:08:07;;;;;;;10.77;3.03;;;;;;;;;;5342476;26;20005;-55
2024/04/21 08:10:32;;;;;;;13.50;2.47;;;;;;;;;;5347074;26;20005;-55
2024/04/21 08:12:57;;;;;;;12.15;2.90;;;;;;;;;;5351157;26;20004;-56
2024/04/21 08:15:23;;;;;;;11.35;2.75;;;;;;;;;;5316731;26;20019;-56
2024/04/21 08:17:48;;;;;;;10.70;2.72;;;;;;;;;;5342013;26;20437;-57
2024/04/21 08:20:15;;;;;;;12.18;2.88;;;;;;;;;;5345613;26;20001;-56
2024/04/21 08:22:40;;;;;;;13.18;2.75;;;;;;;;;;5368779;26;20036;-57
2024/04/21 08:25:05;;;;;;;13.68;2.78;;;;;;;;;;5319925;26;20302;-55
2024/04/21 08:27:30;;;;;;;13.82;2.50;;;;;;;;;;5378568;26;20002;-56
2024/04/21 08:29:56;;;;;;;10.88;3.15;;;;;;;;;;5332388;26;20009;-52
2024/04/21 08:32:21;;;;;;;7.45;2.50;;;;;;;;;;5349905;26;20007;-56
2024/04/21 08:34:46;;;;;;;8.32;3.08;;;;;;;;;;5316965;26;20004;-53
2024/04/21 08:37:12;;;;;;;8.05;3.03;;;;;;;;;;5349244;26;19997;-56
2024/04/21 08:39:37;;;;;;;5.63;2.55;;;;;;;;;;5339201;26;19993;-55
2024/04/21 08:42:02;;;;;;;8.93;2.78;;;;;;;;;;5343345;26;20008;-56
2024/04/21 08:44:29;;;;;;;10.80;3.13;;;;;;;;;;5343599;26;20004;-55
2024/04/21 08:46:55;;;;;;;8.85;3.08;;;;;;;;;;5354822;26;20017;-55
2024/04/21 08:49:21;;;;;;;9.02;3.08;;;;;;;;;;5350060;26;20001;-55
2024/04/21 08:51:47;;;;;;;6.35;2.50;;;;;;;;;;5349841;26;20000;-53
2024/04/21 08:54:13;;;;;;;10.65;3.15;;;;;;;;;;5349674;26;20306;-57
2024/04/21 08:56:42;;;;;;;10.27;3.53;;;;;;;;;;5349735;26;19993;-57
2024/04/21 08:59:07;;;;;;;7.07;2.97;;;;;;;;;;5348341;26;20012;-56
2024/04/21 09:01:33;;;;;;;12.35;3.10;;;;;;;;;;5349616;26;20001;-56
2024/04/21 09:03:58;;;;;;;7.97;3.15;;;;;;;;;;5363219;26;20000;-55
2024/04/21 09:06:25;;;;;;;7.50;3.10;;;;;;;;;;5384088;26;20058;-56
2024/04/21 09:08:50;;;;;;;7.90;3.03;;;;;;;;;;5385037;26;20305;-55
2024/04/21 09:11:16;;;;;;;7.43;3.13;;;;;;;;;;5323167;26;20005;-52
2024/04/21 09:13:41;;;;;;;7.18;3.13;;;;;;;;;;5336600;26;19997;-56
2024/04/21 09:16:06;;;;;;;5.95;2.90;;;;;;;;;;5348849;26;20001;-52
2024/04/21 09:18:31;;;;;;;6.40;2.83;;;;;;;;;;5342487;26;20005;-55
2024/04/21 09:20:57;;;;;;;7.53;3.03;;;;;;;;;;5341383;26;19996;-54
2024/04/21 09:23:22;;;;;;;7.05;3.28;;;;;;;;;;5359846;26;20001;-54
2024/04/21 09:25:47;;;;;;;8.38;2.90;;;;;;;;;;5352857;26;20009;-53
2024/04/21 09:28:12;;;;;;;6.50;3.10;;;;;;;;;;5345870;26;19997;-56
2024/04/21 09:30:39;;;;;;;5.63;2.92;;;;;;;;;;5343502;26;19997;-53
2024/04/21 09:33:06;;;;;;;5.43;3.22;;;;;;;;;;5350179;26;19996;-54
2024/04/21 09:35:31;;;;;;;9.20;4.00;;;;;;;;;;5364842;26;20013;-57
2024/04/21 09:37:56;;;;;;;6.65;3.88;;;;;;;;;;5338813;26;20633;-55
2024/04/21 09:40:23;;;;;;;7.00;3.20;;;;;;;;;;5341471;26;20013;-56
2024/04/21 09:42:49;;;;;;;7.05;3.22;;;;;;;;;;5313131;26;20512;-56
2024/04/21 09:45:16;;;;;;;6.75;3.00;;;;;;;;;;5343932;26;19993;-57
2024/04/21 09:47:42;;;;;;;5.38;2.95;;;;;;;;;;5342959;26;20052;-57
2024/04/21 09:50:09;;;;;;;6.13;3.08;;;;;;;;;;5342333;26;20020;-54
2024/04/21 09:52:35;;;;;;;7.57;2.80;;;;;;;;;;5337280;26;20009;-53
2024/04/21 09:55:01;;;;;;;5.95;2.85;;;;;;;;;;5361372;26;20007;-57
2024/04/21 09:57:26;;;;;;;5.88;2.95;;;;;;;;;;5350836;26;20322;-57
2024/04/21 09:59:57;;;;;;;6.28;2.95;;;;;;;;;;5362098;26;20000;-53
2024/04/21 10:02:23;;;;;;;5.75;2.78;;;;;;;;;;5384626;26;19996;-56
2024/04/21 10:04:51;;;;;;;5.18;2.90;;;;;;;;;;5320162;26;20327;-56
2024/04/21 10:07:18;;;;;;;5.80;3.08;;;;;;;;;;5325134;26;20002;-56
2024/04/21 10:09:44;;;;;;;6.60;3.35;;;;;;;;;;5337997;26;20298;-56
2024/04/21 10:12:09;;;;;;;4.45;2.67;;;;;;;;;;5346935;26;20033;-56
2024/04/21 10:14:35;;;;;;;6.45;3.30;;;;;;;;;;5346299;26;19997;-57
2024/04/21 10:17:00;;;;;;;4.38;2.60;;;;;;;;;;5344905;26;20076;-54
2024/04/21 10:19:25;;;;;;;5.80;3.03;;;;;;;;;;5347900;26;20132;-57
2024/04/21 10:21:51;;;;;;;4.80;2.90;;;;;;;;;;5345555;26;20077;-57
2024/04/21 10:24:18;;;;;;;5.93;2.90;;;;;;;;;;5347834;26;20005;-57
2024/04/21 10:26:43;;;;;;;5.88;2.90;;;;;;;;;;5345281;26;20045;-56
2024/04/21 10:29:09;;;;;;;5.90;2.58;;;;;;;;;;5341971;26;20275;-53
2024/04/21 10:31:34;;;;;;;5.18;2.78;;;;;;;;;;5344613;26;19997;-56
2024/04/21 10:34:09;;;;;;;5.82;2.50;;;;;;;;;;5346321;26;20066;-52
2024/04/21 10:36:40;;;;;;;4.75;2.28;;;;;;;;;;5347502;26;19993;-53
2024/04/21 10:39:06;;;;;;;9.10;2.40;;;;;;;;;;5345265;26;20409;-53
2024/04/21 10:41:36;;;;;;;3.97;2.35;;;;;;;;;;5340599;26;19997;-55
2024/04/21 10:44:01;;;;;;;3.67;2.10;;;;;;;;;;5314250;26;20005;-53
2024/04/21 10:46:29;;;;;;;4.30;2.20;;;;;;;;;;5357638;26;20074;-53
2024/04/21 10:48:55;;;;;;;5.93;2.03;;;;;;;;;;5350151;26;20298;-53
2024/04/21 10:51:20;;;;;;;19.38;2.25;;;;;;;;;;5351405;26;19997;-55
2024/04/21 10:53:45;;;;;;;7.30;2.45;;;;;;;;;;5346148;26;20001;-53
2024/04/21 10:56:10;;;;;;;5.60;2.17;;;;;;;;;;5344845;26;20005;-55
2024/04/21 10:58:37;;;;;;;5.93;1.80;;;;;;;;;;5341591;26;20007;-54
2024/04/21 11:01:02;;;;;;;15.93;3.75;;;;;;;;;;5342905;26;20410;-53
2024/04/21 11:03:31;;;;;;;4.93;2.10;;;;;;;;;;5341592;26;20071;-55
2024/04/21 11:06:00;;;;;;;3.97;2.17;;;;;;;;;;5316181;26;20005;-55
2024/04/21 11:08:27;;;;;;;6.65;2.03;;;;;;;;;;5345839;26;20028;-56
2024/04/21 11:10:52;;;;;;;3.90;1.80;;;;;;;;;;5345433;26;20028;-57
2024/04/21 11:13:18;;;;;;;4.90;2.00;;;;;;;;;;5343028;26;20030;-56
2024/04/21 11:15:43;;;;;;;5.28;1.70;;;;;;;;;;5344381;26;20566;-55
2024/04/21 11:18:08;;;;;;;4.85;1.70;;;;;;;;;;5345824;26;20005;-57
2024/04/21 11:20:34;;;;;;;3.72;1.75;;;;;;;;;;5346810;26;20071;-58
2024/04/21 11:22:59;;;;;;;2.92;1.58;;;;;;;;;;5344539;26;20001;-56
2024/04/21 11:25:24;;;;;;;4.70;2.00;;;;;;;;;;5339595;26;20067;-55
2024/04/21 11:27:50;;;;;;;2.75;1.35;;;;;;;;;;5339723;26;20373;-54
2024/04/21 11:30:23;;;;;;;4.25;1.45;;;;;;;;;;5343595;26;20148;-52
2024/04/21 11:32:48;;;;;;;2.72;1.58;;;;;;;;;;5342267;26;20002;-54
2024/04/21 11:35:14;;;;;;;5.53;1.80;;;;;;;;;;5345906;26;20083;-56
2024/04/21 11:37:39;;;;;;;4.07;2.10;;;;;;;;;;5343147;26;20109;-56
2024/04/21 11:40:06;;;;;;;2.90;1.77;;;;;;;;;;5348141;26;20366;-54
2024/04/21 11:42:31;;;;;;;3.33;1.80;;;;;;;;;;5342751;26;19993;-55
2024/04/21 11:44:56;;;;;;;4.05;1.70;;;;;;;;;;5341219;26;20008;-53
2024/04/21 11:47:22;;;;;;;3.67;2.13;;;;;;;;;;5341658;26;20072;-53
2024/04/21 11:49:47;;;;;;;3.20;1.60;;;;;;;;;;5337888;26;20129;-54
2024/04/21 11:52:12;;;;;;;3.65;2.08;;;;;;;;;;5344994;26;20007;-56
2024/04/21 11:54:37;;;;;;;2.80;1.50;;;;;;;;;;5342250;26;20016;-55
2024/04/21 11:57:03;;;;;;;4.80;1.70;;;;;;;;;;5343493;26;19993;-56
2024/04/21 11:59:29;;;;;;;3.60;1.90;;;;;;;;;;5343677;26;20036;-54
2024/04/21 12:01:54;;;;;;;3.95;1.85;;;;;;;;;;5342680;26;20000;-57
2024/04/21 12:04:20;;;;;;;3.17;1.58;;;;;;;;;;5345414;26;20012;-57
2024/04/21 12:06:45;;;;;;;3.55;1.60;;;;;;;;;;5345247;26;19997;-56
2024/04/21 12:09:11;;;;;;;3.45;1.75;;;;;;;;;;5343816;26;20028;-55
2024/04/21 12:11:36;;;;;;;3.22;1.52;;;;;;;;;;5344823;26;20013;-57
2024/04/21 12:14:28;;;;;;;2.60;1.50;;;;;;;;;;5314667;26;20485;-54
2024/04/21 12:16:54;;;;;;;2.90;1.50;;;;;;;;;;5340958;26;20133;-58
2024/04/21 12:19:19;;;;;;;2.72;1.52;;;;;;;;;;5341503;26;20048;-57
2024/04/21 12:21:44;;;;;;;5.75;1.60;;;;;;;;;;5343118;26;20012;-56
2024/04/21 12:24:10;;;;;;;4.32;1.75;;;;;;;;;;5343956;26;20005;-56
2024/04/21 12:26:35;;;;;;;3.42;1.60;;;;;;;;;;5343832;26;20271;-59
2024/04/21 12:29:00;;;;;;;2.88;1.30;;;;;;;;;;5344144;26;19997;-58
2024/04/21 12:31:25;;;;;;;4.38;1.60;;;;;;;;;;5342567;26;20012;-56
2024/04/21 12:33:52;;;;;;;2.20;1.27;;;;;;;;;;5339766;26;19997;-57
2024/04/21 12:36:17;;;;;;;3.90;1.52;;;;;;;;;;5344412;26;20043;-58
2024/04/21 12:38:42;;;;;;;3.10;1.40;;;;;;;;;;5334686;26;20013;-55
2024/04/21 12:41:08;;;;;;;4.30;1.50;;;;;;;;;;5344108;26;20366;-53
2024/04/21 12:43:33;;;;;;;2.28;1.27;;;;;;;;;;5345948;26;19997;-55
2024/04/21 12:45:59;;;;;;;2.85;1.38;;;;;;;;;;5344362;26;19997;-56
2024/04/21 12:48:24;;;;;;;2.83;1.30;;;;;;;;;;5344637;26;20402;-54
2024/04/21 12:50:51;;;;;;;2.42;1.40;;;;;;;;;;5339660;26;20382;-54
2024/04/21 12:53:17;;;;;;;5.00;1.65;;;;;;;;;;5342442;26;20049;-55
2024/04/21 12:55:42;;;;;;;3.10;1.40;;;;;;;;;;5346069;26;19993;-54
2024/04/21 12:58:07;;;;;;;2.03;1.33;;;;;;;;;;5339190;26;20395;-51
2024/04/21 13:00:34;;;;;;;2.42;1.20;;;;;;;;;;5343859;26;20001;-55
2024/04/21 13:02:59;;;;;;;4.53;1.25;;;;;;;;;;5341469;26;20076;-55
2024/04/21 13:05:24;;;;;;;2.58;1.20;;;;;;;;;;5341688;26;20001;-55
2024/04/21 13:07:50;;;;;;;3.13;1.45;;;;;;;;;;5343166;26;20434;-54
2024/04/21 13:10:16;;;;;;;2.20;1.10;;;;;;;;;;5343119;26;20012;-55
2024/04/21 13:12:41;;;;;;;2.80;1.10;;;;;;;;;;5341851;26;19993;-57
2024/04/21 13:15:06;;;;;;;2.35;1.10;;;;;;;;;;5339920;26;20013;-54
2024/04/21 13:17:32;;;;;;;2.65;1.15;;;;;;;;;;5341462;26;20015;-57
2024/04/21 13:19:57;;;;;;;4.88;1.45;;;;;;;;;;5341374;26;22276;-59
2024/04/21 13:22:22;;;;;;;3.03;1.35;;;;;;;;;;5346253;26;20000;-58
2024/04/21 13:24:47;;;;;;;2.00;1.10;;;;;;;;;;5340941;26;20004;-58
2024/04/21 13:27:13;;;;;;;2.05;1.20;;;;;;;;;;5347375;26;19997;-57
2024/04/21 13:29:38;;;;;;;2.80;1.40;;;;;;;;;;5348606;26;20005;-58
2024/04/21 13:32:04;;;;;;;3.70;1.50;;;;;;;;;;5360129;26;20012;-57
2024/04/21 13:34:29;;;;;;;3.55;1.30;;;;;;;;;;5375568;26;20101;-59
2024/04/21 13:36:54;;;;;;;4.75;1.70;;;;;;;;;;5349533;26;20019;-57
2024/04/21 13:39:20;;;;;;;3.92;1.40;;;;;;;;;;5336529;26;19997;-55
2024/04/21 13:41:45;;;;;;;2.00;1.30;;;;;;;;;;5348919;26;20001;-54
2024/04/21 13:44:10;;;;;;;3.58;1.50;;;;;;;;;;5350209;26;19993;-57
2024/04/21 13:46:36;;;;;;;2.80;1.33;;;;;;;;;;5350927;26;20001;-56
2024/04/21 13:49:01;;;;;;;3.67;1.40;;;;;;;;;;5350629;26;20000;-52
2024/04/21 13:51:28;;;;;;;2.90;1.50;;;;;;;;;;5317490;26;20001;-56
2024/04/21 13:53:53;;;;;;;4.43;1.42;;;;;;;;;;5343570;26;20353;-56
2024/04/21 13:56:18;;;;;;;2.97;1.48;;;;;;;;;;5347243;26;20068;-57
2024/04/21 13:58:43;;;;;;;2.83;1.55;;;;;;;;;;5344655;26;20044;-55
2024/04/21 14:01:09;;;;;;;3.50;1.80;;;;;;;;;;5348064;26;20001;-57
2024/04/21 14:03:34;;;;;;;4.05;1.58;;;;;;;;;;5349117;26;20001;-55
2024/04/21 14:05:59;;;;;;;2.63;1.38;;;;;;;;;;5345615;26;20020;-54
2024/04/21 14:08:24;;;;;;;4.30;1.60;;;;;;;;;;5347814;26;19993;-56
2024/04/21 14:10:50;;;;;;;4.43;1.52;;;;;;;;;;5342468;26;20324;-56
2024/04/21 14:13:15;;;;;;;3.17;1.60;;;;;;;;;;5344856;26;20067;-57
2024/04/21 14:15:40;;;;;;;3.40;1.50;;;;;;;;;;5346537;26;20016;-55
2024/04/21 14:18:05;;;;;;;3.60;1.60;;;;;;;;;;5346339;26;20000;-56
2024/04/21 14:20:31;;;;;;;3.83;1.73;;;;;;;;;;5346874;26;20016;-56
2024/04/21 14:22:56;;;;;;;6.85;1.50;;;;;;;;;;5348556;26;19997;-55
2024/04/21 14:25:21;;;;;;;4.55;1.75;;;;;;;;;;5344713;26;20001;-55
2024/04/21 14:27:47;;;;;;;4.70;1.83;;;;;;;;;;5389168;21;20289;-51